createdAt,value
2022-09-28T00:01:07.568Z,4.88
2022-09-28T00:03:35.133Z,5.30
2022-09-28T00:06:04.217Z,6.78
2022-09-28T00:08:31.609Z,4.80
2022-09-28T00:10:58.958Z,4.97
2022-09-28T00:13:26.283Z,4.85
2022-09-28T00:16:05.390Z,4.55
2022-09-28T00:18:33.160Z,5.38
2022-09-28T00:21:10.056Z,5.07
2022-09-28T00:23:56.414Z,4.78
2022-09-28T00:26:23.915Z,3.63
2022-09-28T00:28:55.290Z,4.97
2022-09-28T00:31:25.063Z,2.85
2022-09-28T00:33:53.298Z,4.43
2022-09-28T00:36:20.667Z,2.15
2022-09-28T00:38:47.849Z,9.38
2022-09-28T00:41:15.564Z,3.55
2022-09-28T00:43:43.059Z,3.58
2022-09-28T00:46:31.396Z,4.70
2022-09-28T00:49:03.183Z,2.57
2022-09-28T00:51:30.711Z,2.90
2022-09-28T00:53:59.369Z,4.05
2022-09-28T00:56:29.328Z,4.63
2022-09-28T00:58:58.057Z,2.80
2022-09-28T01:01:25.275Z,3.72
2022-09-28T01:03:52.504Z,2.60
2022-09-28T01:06:22.710Z,5.90
2022-09-28T01:08:51.936Z,2.78
2022-09-28T01:11:22.208Z,3.63
2022-09-28T01:13:50.518Z,5.05
2022-09-28T01:16:26.418Z,2.70
2022-09-28T01:18:59.728Z,7.55
2022-09-28T01:21:27.012Z,3.45
2022-09-28T01:24:10.334Z,3.53
2022-09-28T01:26:48.423Z,2.97
2022-09-28T01:29:26.930Z,7.07
2022-09-28T01:32:18.265Z,3.23
2022-09-28T01:35:12.672Z,3.53
2022-09-28T01:37:56.964Z,4.03
2022-09-28T01:40:26.079Z,4.00
2022-09-28T01:43:04.430Z,2.40
2022-09-28T01:45:44.246Z,2.63
2022-09-28T01:48:13.252Z,5.35
2022-09-28T01:50:42.613Z,3.38
2022-09-28T01:55:48.257Z,5.63
2022-09-28T01:58:17.688Z,7.22
2022-09-28T02:00:48.647Z,3.58
2022-09-28T02:03:19.837Z,4.75
2022-09-28T02:05:59.268Z,6.35
2022-09-28T02:08:37.183Z,3.95
2022-09-28T02:11:18.687Z,7.65
2022-09-28T02:13:56.953Z,5.70
2022-09-28T02:16:58.391Z,4.97
2022-09-28T02:19:27.582Z,4.47
2022-09-28T02:22:03.326Z,6.57
2022-09-28T02:24:39.747Z,7.93
2022-09-28T02:27:13.685Z,8.18
2022-09-28T02:29:40.843Z,4.75
2022-09-28T02:32:08.076Z,6.45
2022-09-28T02:34:36.043Z,7.15
2022-09-28T02:37:03.679Z,6.13
2022-09-28T02:39:31.607Z,6.30
2022-09-28T02:42:20.687Z,6.55
2022-09-28T02:45:03.040Z,7.65
2022-09-28T02:47:55.139Z,8.70
2022-09-28T02:50:52.100Z,6.63
2022-09-28T02:53:47.263Z,7.75
2022-09-28T02:56:44.106Z,5.95
2022-09-28T02:59:36.940Z,5.72
2022-09-28T03:02:18.932Z,5.88
2022-09-28T03:05:07.503Z,8.00
2022-09-28T03:07:47.904Z,8.27
2022-09-28T03:10:28.612Z,6.30
2022-09-28T03:12:56.563Z,8.75
2022-09-28T03:15:31.026Z,11.57
2022-09-28T03:17:58.776Z,6.55
2022-09-28T03:20:27.922Z,9.85
2022-09-28T03:23:22.830Z,10.05
2022-09-28T03:25:42.401Z,7.68
2022-09-28T03:28:09.564Z,6.03
2022-09-28T03:30:36.963Z,10.32
2022-09-28T03:33:04.448Z,9.63
2022-09-28T03:35:31.649Z,7.40
2022-09-28T03:37:59.054Z,12.10
2022-09-28T03:40:26.516Z,8.55
2022-09-28T03:42:54.199Z,6.90
2022-09-28T03:45:21.520Z,6.18
2022-09-28T03:47:49.106Z,10.75
2022-09-28T03:50:16.570Z,9.38
2022-09-28T03:52:43.771Z,9.02
2022-09-28T03:55:11.334Z,8.85
2022-09-28T03:57:38.787Z,8.23
2022-09-28T04:00:06.627Z,8.15
2022-09-28T04:02:35.108Z,8.63
2022-09-28T04:05:02.655Z,12.73
2022-09-28T04:07:31.197Z,9.57
2022-09-28T04:09:58.979Z,7.63
2022-09-28T04:12:26.138Z,7.25
2022-09-28T04:14:53.365Z,9.80
2022-09-28T04:17:20.538Z,7.70
2022-09-28T04:19:47.744Z,11.68
2022-09-28T04:22:15.040Z,9.85
2022-09-28T04:24:43.543Z,8.60
2022-09-28T04:27:33.727Z,10.70
2022-09-28T04:30:00.944Z,7.30
2022-09-28T04:32:28.122Z,8.68
2022-09-28T04:34:55.927Z,11.27
2022-09-28T04:37:23.111Z,8.15
2022-09-28T04:39:50.353Z,6.70
2022-09-28T04:42:17.590Z,9.20
2022-09-28T04:44:44.765Z,12.82
2022-09-28T04:47:11.982Z,9.65
2022-09-28T04:49:39.173Z,9.73
2022-09-28T04:52:06.593Z,9.15
2022-09-28T04:54:33.957Z,12.75
2022-09-28T04:57:01.887Z,8.68
2022-09-28T04:59:29.095Z,10.85
2022-09-28T05:01:56.342Z,10.20
2022-09-28T05:04:26.134Z,11.02
2022-09-28T05:06:53.572Z,10.43
2022-09-28T05:09:20.810Z,19.08
2022-09-28T05:11:50.429Z,11.20
2022-09-28T05:14:17.720Z,12.07
2022-09-28T05:16:45.532Z,9.70
2022-09-28T05:19:13.198Z,10.55
2022-09-28T05:21:45.877Z,10.57
2022-09-28T05:24:13.240Z,8.77
2022-09-28T05:26:43.934Z,11.13
2022-09-28T05:29:13.535Z,8.00
2022-09-28T05:31:40.882Z,8.20
2022-09-28T05:34:08.162Z,10.55
2022-09-28T05:36:35.864Z,13.13
2022-09-28T05:39:04.056Z,12.13
2022-09-28T05:41:33.633Z,10.60
2022-09-28T05:44:01.044Z,10.73
2022-09-28T05:46:30.284Z,12.75
2022-09-28T05:48:57.498Z,8.55
2022-09-28T05:51:25.405Z,11.10
2022-09-28T05:53:55.700Z,9.18
2022-09-28T05:56:22.995Z,13.10
2022-09-28T05:58:50.346Z,10.23
2022-09-28T06:01:17.679Z,14.07
2022-09-28T06:03:45.050Z,19.95
2022-09-28T06:06:12.245Z,10.65
2022-09-28T06:08:42.955Z,13.13
2022-09-28T06:11:12.609Z,12.13
2022-09-28T06:16:22.777Z,16.73
2022-09-28T06:18:51.312Z,13.35
2022-09-28T06:21:19.460Z,10.70
2022-09-28T06:23:49.257Z,12.52
2022-09-28T06:26:17.666Z,11.65
2022-09-28T06:28:47.516Z,13.73
2022-09-28T06:31:16.115Z,9.85
2022-09-28T06:33:43.475Z,11.98
2022-09-28T06:36:10.746Z,19.63
2022-09-28T06:38:38.408Z,11.95
2022-09-28T06:41:06.129Z,23.85
2022-09-28T06:43:35.385Z,15.70
2022-09-28T06:46:03.000Z,11.70
2022-09-28T06:48:31.370Z,11.93
2022-09-28T06:50:58.589Z,10.55
2022-09-28T06:53:27.281Z,13.93
2022-09-28T06:55:55.163Z,12.88
2022-09-28T06:58:23.115Z,12.48
2022-09-28T07:00:53.406Z,12.00
2022-09-28T07:03:22.215Z,9.05
2022-09-28T07:05:51.491Z,10.30
2022-09-28T07:08:19.686Z,10.10
2022-09-28T07:10:48.805Z,12.35
2022-09-28T07:13:44.204Z,13.60
2022-09-28T07:16:04.564Z,12.13
2022-09-28T07:18:32.026Z,9.23
2022-09-28T07:20:59.916Z,16.95
2022-09-28T07:23:29.575Z,12.77
2022-09-28T07:25:58.192Z,16.90
2022-09-28T07:28:25.929Z,11.57
2022-09-28T07:30:53.498Z,13.70
2022-09-28T07:33:20.794Z,12.25
2022-09-28T07:35:52.630Z,9.07
2022-09-28T07:38:21.210Z,12.52
2022-09-28T07:41:06.951Z,14.17
2022-09-28T07:43:34.187Z,11.48
2022-09-28T07:46:02.665Z,9.57
2022-09-28T07:48:38.011Z,12.00
2022-09-28T07:51:05.942Z,11.15
2022-09-28T07:53:33.427Z,13.00
2022-09-28T07:56:17.266Z,12.73
2022-09-28T07:58:44.634Z,12.32
2022-09-28T08:01:15.013Z,11.57
2022-09-28T08:03:45.213Z,13.50
2022-09-28T08:06:14.510Z,11.60
2022-09-28T08:11:16.842Z,9.75
2022-09-28T08:13:45.598Z,9.52
2022-09-28T08:16:13.121Z,9.25
2022-09-28T08:18:40.536Z,8.25
2022-09-28T08:21:29.588Z,10.48
2022-09-28T08:23:57.089Z,7.38
2022-09-28T08:26:29.171Z,6.32
2022-09-28T08:28:56.385Z,6.72
2022-09-28T08:31:23.942Z,7.63
2022-09-28T08:33:54.492Z,8.50
2022-09-28T08:36:21.896Z,7.90
2022-09-28T08:38:49.248Z,9.15
2022-09-28T08:41:35.939Z,5.70
2022-09-28T08:44:15.138Z,8.60
2022-09-28T08:49:30.059Z,4.57
2022-09-28T08:52:23.358Z,6.05
2022-09-28T08:55:05.742Z,3.70
2022-09-28T08:57:44.348Z,4.72
2022-09-28T09:00:30.962Z,6.93
2022-09-28T09:02:58.647Z,4.47
2022-09-28T09:05:47.849Z,5.68
2022-09-28T09:11:16.157Z,4.32
2022-09-28T09:14:14.590Z,5.70
2022-09-28T09:17:00.397Z,4.97
2022-09-28T09:19:41.160Z,3.58
2022-09-28T09:22:21.863Z,2.70
2022-09-28T09:24:52.198Z,2.50
2022-09-28T09:27:19.331Z,3.75
2022-09-28T09:29:59.490Z,3.42
2022-09-28T09:32:48.338Z,2.90
2022-09-28T09:35:43.146Z,4.55
2022-09-28T09:38:16.809Z,6.28
2022-09-28T09:41:09.174Z,2.63
2022-09-28T09:44:05.321Z,3.50
2022-09-28T09:46:35.020Z,3.47
2022-09-28T09:49:08.890Z,3.70
2022-09-28T09:51:47.258Z,5.38
2022-09-28T09:54:27.395Z,4.70
2022-09-28T09:56:59.239Z,2.15
2022-09-28T09:59:33.709Z,2.55
2022-09-28T10:02:12.963Z,2.95
2022-09-28T10:07:13.482Z,5.00
2022-09-28T10:09:46.781Z,3.30
2022-09-28T10:12:19.574Z,2.70
2022-09-28T10:14:46.922Z,2.65
2022-09-28T10:17:19.920Z,6.47
2022-09-28T10:19:47.322Z,8.05
2022-09-28T10:22:18.282Z,4.55
2022-09-28T10:24:47.652Z,6.95
2022-09-28T10:27:21.296Z,3.47
2022-09-28T10:29:54.555Z,3.92
2022-09-28T10:32:38.068Z,4.72
2022-09-28T10:35:31.305Z,4.32
2022-09-28T10:38:07.989Z,6.97
2022-09-28T10:40:40.117Z,5.90
2022-09-28T10:43:26.461Z,12.20
2022-09-28T10:46:14.984Z,5.10
2022-09-28T10:48:58.893Z,6.15
2022-09-28T10:51:47.220Z,7.28
2022-09-28T10:54:20.421Z,4.43
2022-09-28T10:56:48.538Z,4.68
2022-09-28T10:59:30.887Z,4.20
2022-09-28T11:02:19.818Z,3.75
2022-09-28T11:04:53.310Z,3.72
2022-09-28T11:07:28.657Z,2.95
2022-09-28T11:09:56.235Z,3.72
2022-09-28T11:12:26.181Z,4.32
2022-09-28T11:15:01.560Z,4.07
2022-09-28T11:17:34.128Z,4.40
2022-09-28T11:20:26.105Z,3.08
2022-09-28T11:23:18.133Z,3.63
2022-09-28T11:26:00.163Z,3.85
2022-09-28T11:28:32.763Z,2.70
2022-09-28T11:31:01.441Z,3.58
2022-09-28T11:33:43.048Z,4.03
2022-09-28T11:36:43.231Z,2.25
2022-09-28T11:39:34.266Z,3.00
2022-09-28T11:42:26.395Z,3.78
2022-09-28T11:45:11.411Z,3.25
2022-09-28T11:47:50.556Z,2.90
2022-09-28T11:50:28.921Z,3.22
2022-09-28T11:53:04.616Z,4.73
2022-09-28T11:55:42.422Z,2.05
2022-09-28T11:58:15.418Z,3.67
2022-09-28T12:00:50.455Z,2.65
2022-09-28T12:03:42.304Z,1.55
2022-09-28T12:06:16.834Z,0.98
2022-09-28T12:09:11.217Z,1.63
2022-09-28T12:11:43.517Z,3.10
2022-09-28T12:14:23.496Z,1.85
2022-09-28T12:17:07.927Z,1.38
2022-09-28T12:19:45.284Z,4.63
2022-09-28T12:22:24.454Z,1.30
2022-09-28T12:24:54.505Z,6.20
2022-09-28T12:27:26.951Z,1.83
2022-09-28T12:30:04.802Z,2.17
2022-09-28T12:32:44.202Z,1.60
2022-09-28T12:35:33.577Z,1.13
2022-09-28T12:38:11.352Z,2.17
2022-09-28T12:40:51.053Z,3.30
2022-09-28T12:43:33.774Z,1.77
2022-09-28T12:46:32.787Z,2.38
2022-09-28T12:52:28.458Z,1.67
2022-09-28T12:58:00.923Z,3.00
2022-09-28T13:01:03.312Z,0.85
2022-09-28T13:03:35.089Z,3.42
2022-09-28T13:06:37.904Z,2.00
2022-09-28T13:09:20.322Z,3.15
2022-09-28T13:12:05.423Z,4.68
2022-09-28T13:15:12.736Z,2.38
2022-09-28T13:17:52.892Z,4.60
2022-09-28T13:20:23.265Z,2.50
2022-09-28T13:23:16.985Z,1.73
2022-09-28T13:26:04.965Z,3.03
2022-09-28T13:28:32.832Z,4.10
2022-09-28T13:31:02.134Z,3.35
2022-09-28T13:35:58.088Z,2.70
2022-09-28T13:38:29.760Z,3.88
2022-09-28T13:41:06.809Z,1.50
2022-09-28T13:43:55.754Z,1.45
2022-09-28T13:46:38.251Z,2.30
2022-09-28T13:49:11.310Z,2.70
2022-09-28T13:51:44.102Z,3.60
2022-09-28T13:54:40.846Z,1.70
2022-09-28T13:57:21.265Z,3.20
2022-09-28T13:59:58.211Z,3.90
2022-09-28T14:02:33.321Z,1.75
2022-09-28T14:05:25.747Z,1.83
2022-09-28T14:08:06.761Z,2.80
2022-09-28T14:10:56.816Z,2.78
2022-09-28T14:13:48.938Z,2.25
2022-09-28T14:16:19.437Z,3.60
2022-09-28T14:18:54.775Z,4.13
2022-09-28T14:21:47.309Z,1.70
2022-09-28T14:24:31.944Z,2.00
2022-09-28T14:27:36.643Z,2.17
2022-09-28T14:30:25.706Z,1.33
2022-09-28T14:32:59.718Z,1.92
2022-09-28T14:35:34.372Z,1.17
2022-09-28T14:38:38.735Z,5.90
2022-09-28T14:41:11.073Z,5.30
2022-09-28T14:43:59.935Z,2.10
2022-09-28T14:46:35.682Z,2.13
2022-09-28T14:49:26.206Z,2.17
2022-09-28T14:51:56.471Z,1.10
2022-09-28T14:54:45.262Z,2.15
2022-09-28T14:57:24.103Z,4.20
2022-09-28T14:59:51.549Z,3.28
2022-09-28T15:02:31.710Z,2.92
2022-09-28T15:05:31.153Z,2.50
2022-09-28T15:07:58.590Z,1.85
2022-09-28T15:10:27.882Z,2.85
2022-09-28T15:12:57.071Z,2.63
2022-09-28T15:15:39.063Z,1.50
2022-09-28T15:18:25.560Z,2.08
2022-09-28T15:20:52.829Z,1.42
2022-09-28T15:23:28.699Z,10.88
2022-09-28T15:25:56.473Z,2.38
2022-09-28T15:28:25.272Z,3.10
2022-09-28T15:30:59.047Z,2.40
2022-09-28T15:33:49.418Z,1.23
2022-09-28T15:36:24.388Z,1.60
2022-09-28T15:39:13.570Z,1.73
2022-09-28T15:44:23.476Z,2.53
2022-09-28T15:46:52.076Z,1.92
2022-09-28T15:49:46.703Z,2.22
2022-09-28T15:52:25.794Z,3.75
2022-09-28T15:54:55.206Z,3.08
2022-09-28T15:57:36.988Z,2.88
2022-09-28T16:00:25.932Z,3.17
2022-09-28T16:03:24.283Z,2.83
2022-09-28T16:06:05.733Z,5.50
2022-09-28T16:08:44.074Z,2.88
2022-09-28T16:11:26.196Z,2.72
2022-09-28T16:13:56.788Z,6.57
2022-09-28T16:16:30.554Z,4.95
2022-09-28T16:19:00.617Z,4.03
2022-09-28T16:21:44.347Z,6.75
2022-09-28T16:24:28.297Z,6.22
2022-09-28T16:27:20.073Z,49.83
2022-09-28T16:30:24.278Z,61.53
2022-09-28T16:32:56.995Z,28.17
2022-09-28T16:35:27.030Z,16.70
2022-09-28T16:38:23.892Z,22.05
2022-09-28T16:40:53.821Z,15.20
2022-09-28T16:43:31.740Z,13.27
2022-09-28T16:46:12.797Z,5.35
2022-09-28T16:48:48.602Z,4.45
2022-09-28T16:51:24.946Z,10.68
2022-09-28T16:54:10.663Z,3.60
2022-09-28T16:56:38.028Z,5.57
2022-09-28T16:59:05.553Z,5.55
2022-09-28T17:01:42.333Z,6.07
2022-09-28T17:04:09.793Z,5.70
2022-09-28T17:06:40.284Z,4.78
2022-09-28T17:09:08.634Z,5.00
2022-09-28T17:11:35.904Z,5.20
2022-09-28T17:14:03.545Z,9.15
2022-09-28T17:16:59.895Z,6.70
2022-09-28T17:19:22.932Z,3.72
2022-09-28T17:21:51.208Z,3.97
2022-09-28T17:24:19.307Z,5.80
2022-09-28T17:26:47.376Z,5.75
2022-09-28T17:29:15.119Z,5.00
2022-09-28T17:31:46.393Z,8.70
2022-09-28T17:34:16.007Z,7.72
2022-09-28T17:36:44.236Z,6.82
2022-09-28T17:39:13.517Z,7.15
2022-09-28T17:44:08.809Z,6.05
2022-09-28T17:46:39.417Z,4.90
2022-09-28T17:49:07.944Z,4.82
2022-09-28T17:51:37.739Z,5.00
2022-09-28T17:54:07.049Z,8.23
2022-09-28T17:59:06.624Z,4.95
2022-09-28T18:01:35.007Z,4.13
2022-09-28T18:04:04.969Z,6.53
2022-09-28T18:06:33.935Z,5.03
2022-09-28T18:09:03.115Z,4.28
2022-09-28T18:11:31.400Z,4.55
2022-09-28T18:14:02.041Z,5.97
2022-09-28T18:16:29.433Z,4.72
2022-09-28T18:18:56.710Z,5.88
2022-09-28T18:21:24.032Z,4.07
2022-09-28T18:23:51.417Z,3.58
2022-09-28T18:26:21.457Z,7.60
2022-09-28T18:28:48.733Z,5.60
2022-09-28T18:31:22.065Z,7.18
2022-09-28T18:36:35.832Z,10.15
2022-09-28T18:39:03.411Z,16.60
2022-09-28T18:41:30.631Z,5.82
2022-09-28T18:44:02.252Z,10.05
2022-09-28T18:46:31.146Z,7.47
2022-09-28T18:48:58.353Z,10.70
2022-09-28T18:51:26.445Z,13.73
2022-09-28T18:53:53.921Z,7.65
2022-09-28T18:56:21.690Z,5.82
2022-09-28T18:58:53.237Z,6.68
2022-09-28T19:01:30.749Z,4.35
2022-09-28T19:04:03.224Z,6.57
2022-09-28T19:06:31.734Z,6.30
2022-09-28T19:09:01.865Z,5.25
2022-09-28T19:11:29.892Z,4.28
2022-09-28T19:13:58.437Z,7.03
2022-09-28T19:16:28.751Z,5.07
2022-09-28T19:19:02.723Z,6.20
2022-09-28T19:21:31.537Z,6.95
2022-09-28T19:24:02.863Z,4.80
2022-09-28T19:26:32.992Z,7.93
2022-09-28T19:29:02.183Z,6.72
2022-09-28T19:31:33.828Z,6.72
2022-09-28T19:34:02.845Z,5.30
2022-09-28T19:36:30.137Z,8.00
2022-09-28T19:39:02.932Z,5.57
2022-09-28T19:41:43.677Z,6.43
2022-09-28T19:44:24.877Z,3.80
2022-09-28T19:46:55.160Z,4.13
2022-09-28T19:49:23.584Z,4.68
2022-09-28T19:52:14.646Z,6.30
2022-09-28T19:54:57.152Z,13.98
2022-09-28T19:57:27.903Z,12.68
2022-09-28T20:00:00.854Z,6.72
2022-09-28T20:02:32.648Z,7.03
2022-09-28T20:05:00.192Z,5.13
2022-09-28T20:07:32.699Z,7.95
2022-09-28T20:10:01.407Z,5.75
2022-09-28T20:12:28.846Z,5.50
2022-09-28T20:14:56.281Z,4.72
2022-09-28T20:17:24.652Z,6.00
2022-09-28T20:19:51.902Z,11.00
2022-09-28T20:22:20.039Z,4.22
2022-09-28T20:24:47.367Z,5.15
2022-09-28T20:27:14.678Z,7.70
2022-09-28T20:29:43.068Z,6.18
2022-09-28T20:32:11.658Z,6.67
2022-09-28T20:34:39.052Z,5.03
2022-09-28T20:37:06.886Z,5.90
2022-09-28T20:39:34.724Z,7.20
2022-09-28T20:42:02.866Z,4.47
2022-09-28T20:44:30.207Z,5.20
2022-09-28T20:46:57.472Z,4.40
2022-09-28T20:49:24.705Z,5.28
2022-09-28T20:51:52.490Z,8.90
2022-09-28T20:54:21.317Z,5.78
2022-09-28T20:56:48.670Z,6.03
2022-09-28T20:59:16.438Z,9.15
2022-09-28T21:01:44.098Z,7.75
2022-09-28T21:04:11.463Z,4.38
2022-09-28T21:06:41.046Z,5.90
2022-09-28T21:09:09.360Z,4.93
2022-09-28T21:11:37.124Z,5.25
2022-09-28T21:14:06.584Z,4.80
2022-09-28T21:16:35.858Z,4.72
2022-09-28T21:19:03.854Z,3.47
2022-09-28T21:21:31.146Z,4.15
2022-09-28T21:23:58.933Z,4.45
2022-09-28T21:26:28.318Z,6.00
2022-09-28T21:31:29.306Z,4.85
2022-09-28T21:33:57.299Z,3.25
2022-09-28T21:36:25.042Z,4.07
2022-09-28T21:38:53.651Z,4.30
2022-09-28T21:41:20.926Z,4.30
2022-09-28T21:43:48.154Z,3.28
2022-09-28T21:46:15.586Z,5.30
2022-09-28T21:48:42.829Z,5.20
2022-09-28T21:51:13.967Z,4.03
2022-09-28T21:53:41.155Z,5.50
2022-09-28T21:56:10.908Z,3.90
2022-09-28T21:58:43.367Z,4.82
2022-09-28T22:01:17.960Z,6.20
2022-09-28T22:03:50.547Z,6.40
2022-09-28T22:06:19.889Z,6.68
2022-09-28T22:11:16.404Z,8.70
2022-09-28T22:16:25.318Z,4.65
2022-09-28T22:21:24.706Z,4.90
2022-09-28T22:23:51.980Z,6.05
2022-09-28T22:26:21.593Z,6.90
2022-09-28T22:28:57.208Z,5.00
2022-09-28T22:31:26.923Z,5.32
2022-09-28T22:33:54.375Z,6.45
2022-09-28T22:36:21.684Z,7.40
2022-09-28T22:39:00.349Z,5.10
2022-09-28T22:41:27.565Z,6.57
2022-09-28T22:43:56.055Z,8.88
2022-09-28T22:46:27.884Z,7.57
2022-09-28T22:48:57.654Z,5.68
2022-09-28T22:51:29.007Z,7.50
2022-09-28T22:53:57.032Z,10.00
2022-09-28T22:56:26.275Z,7.45
2022-09-28T22:58:53.480Z,13.35
2022-09-28T23:01:23.295Z,8.38
2022-09-28T23:03:51.614Z,7.80
2022-09-28T23:06:20.971Z,7.10
2022-09-28T23:11:16.306Z,8.05
2022-09-28T23:13:48.009Z,9.40
2022-09-28T23:16:15.212Z,8.02
2022-09-28T23:18:43.778Z,10.82
2022-09-28T23:21:16.367Z,8.77
2022-09-28T23:23:44.363Z,12.27
2022-09-28T23:26:19.851Z,12.63
2022-09-28T23:28:47.260Z,12.43
2022-09-28T23:31:23.263Z,8.68
2022-09-28T23:33:50.731Z,9.00
2022-09-28T23:36:18.054Z,10.50
2022-09-28T23:38:45.211Z,10.45
2022-09-28T23:41:12.389Z,9.10
2022-09-28T23:43:39.693Z,7.88
2022-09-28T23:46:07.189Z,7.53
2022-09-28T23:48:34.949Z,7.88
2022-09-28T23:51:02.417Z,9.18
2022-09-28T23:53:30.113Z,10.65
2022-09-28T23:55:57.450Z,8.85
2022-09-28T23:58:25.710Z,7.65
